Latest Weather Observations for Moss Vale

IDN60801

Issued at 12:32 pm EST Wednesday 2 September 2015 (issued every 30 minutes, with the page automatically refreshed every 10 minutes)

About weather observations | Map of weather stations | Latest weather observations for NSW | Other Formats
Station Details ID: 068239 Name: MOSS VALE AWS Lat: -34.53 Lon: 150.42 Height: 678.4 m
Data from the previous 72 hours. | See also: Recent months at Moss Vale
Date/Time
EST
Temp
°C
App
Temp
°C
Dew
Point
Rel
Hum
%
Delta-T
°C
Wind Press
QNH
hPa
Press
MSL
hPa
Rain
since 9 am
mm
Dir
 
Spd
km/h
Gust
km/h
Spd
kts
Gust
kts
02/12:30pm 14.0 8.9 -1.6 34 6.6 N 15 22 8 12 1014.1 1013.6 0.0
02/12:00pm 12.8 7.2 -2.6 34 6.3 NNE 17 20 9 11 1014.8 1014.3 0.0
02/11:30am 11.8 6.1 -3.9 33 6.1 N 17 22 9 12 1015.4 1014.9 0.0
02/11:00am 11.6 5.5 -2.2 38 5.6 N 20 24 11 13 1015.9 1015.5 0.0
02/10:30am 12.1 6.1 -2.9 35 6.0 N 19 24 10 13 1016.3 1015.8 0.0
02/10:00am 12.2 7.6 -4.0 32 6.3 NNW 11 20 6 11 1016.7 1016.2 0.0
02/09:30am 9.6 6.0 0.5 53 3.8 NW 9 15 5 8 1017.0 1016.5 0.0
02/09:00am 8.0 5.3 3.5 73 2.0 NW 7 9 4 5 1017.2 1016.8 0.0
02/08:30am 6.6 4.2 4.1 84 1.1 NNE 6 7 3 4 1017.1 1016.6 0.0
02/08:00am 4.1 2.2 3.1 93 0.4 NNW 2 6 1 3 1017.0 1016.5 0.0
02/07:30am 2.9 0.2 2.6 98 0.1 NNW 6 7 3 4 1016.9 1016.4 0.0
02/07:26am 2.5 -0.3 2.2 98 0.1 NNW 6 7 3 4 1016.9 1016.4 0.0
02/07:05am -0.6 -2.7 -0.9 98 0.1 CALM 0 7 0 4 1016.8 1016.3 0.0
02/07:00am 1.6 -0.2 1.3 98 0.1 CALM 0 0 0 0 1016.7 1016.2 0.0
02/06:46am 1.3 -0.5 1.0 98 0.1 CALM 0 0 0 0 1016.8 1016.3 0.0
02/06:30am 0.5 -1.8 0.2 98 0.1 W 2 6 1 3 1016.7 1016.2 0.0
02/06:01am 0.2 -1.8 -0.1 98 0.1 CALM 0 0 0 0 1016.6 1016.1 0.0
02/06:00am 0.4 -1.6 0.1 98 0.1 CALM 0 0 0 0 1016.6 1016.1 0.0
02/05:30am 0.7 -1.2 0.4 98 0.1 CALM 0 0 0 0 1016.3 1015.8 0.0
02/05:13am 2.2 -0.2 1.9 98 0.1 ENE 4 7 2 4 1016.0 1015.6 0.0
02/05:00am 1.0 -2.2 0.6 97 0.2 NE 7 9 4 5 1015.8 1015.3 0.0
02/04:30am 0.3 -1.8 -0.7 93 0.4 CALM 0 0 0 0 1015.6 1015.1 0.0
02/04:27am 0.4 -1.7 -0.6 93 0.4 CALM 0 6 0 3 1015.7 1015.2 0.0
02/04:00am 2.1 -1.4 1.1 93 0.4 WSW 9 11 5 6 1016.1 1015.7 0.0
02/03:53am 2.4 -1.1 1.2 92 0.5 WSW 9 9 5 5 1016.1 1015.7 0.0
02/03:30am 2.9 -0.9 1.7 92 0.5 W 11 15 6 8 1016.1 1015.7 0.0
02/03:00am 2.9 -0.1 1.7 92 0.5 W 7 11 4 6 1016.4 1015.9 0.0
02/02:30am 2.7 -0.8 1.5 92 0.5 NW 9 13 5 7 1016.5 1016.0 0.0
02/02:00am 2.5 0.7 1.5 93 0.4 CALM 0 2 0 1 1016.7 1016.2 0.0
02/01:30am 2.7 -0.3 1.1 89 0.6 WSW 6 7 3 4 1016.6 1016.1 0.0
02/01:00am 3.4 -0.1 1.4 87 0.8 WSW 9 11 5 6 1016.8 1016.3 0.0
02/12:30am 3.5 0.0 1.1 84 1.0 W 9 11 5 6 1016.8 1016.3 0.0
02/12:00am 3.7 -0.2 1.1 83 1.0 WSW 11 17 6 9 1016.7 1016.2 0.0
 
Date/Time
EST
Temp
°C
App
Temp
°C
Dew
Point
Rel
Hum
%
Delta-T
°C
Wind Press
QNH
hPa
Press
MSL
hPa
Rain
since 9 am
mm
Dir
 
Spd
km/h
Gust
km/h
Spd
kts
Gust
kts
01/11:30pm 3.1 -0.5 0.8 85 0.9 W 9 13 5 7 1016.4 1015.9 0.0
01/11:00pm 3.9 0.3 0.9 81 1.2 W 9 11 5 6 1016.4 1015.9 0.0
01/10:30pm 4.6 1.5 1.5 80 1.3 NW 7 13 4 7 1016.4 1015.9 0.0
01/10:00pm 5.2 0.9 1.3 76 1.6 WSW 13 15 7 8 1016.0 1015.6 0.0
01/09:30pm 5.5 1.9 0.7 71 2.0 WSW 9 13 5 7 1016.0 1015.6 0.0
01/09:00pm 6.3 2.4 1.4 71 2.0 SW 11 15 6 8 1015.8 1015.3 0.0
01/08:30pm 6.3 1.7 1.4 71 2.0 SW 15 17 8 9 1015.5 1015.0 0.0
01/08:00pm 6.3 2.4 1.2 70 2.1 SW 11 13 6 7 1015.4 1014.9 0.0
01/07:30pm 7.2 3.0 1.5 67 2.4 WSW 13 19 7 10 1015.2 1014.7 0.0
01/07:00pm 7.7 3.5 1.5 65 2.6 WSW 13 17 7 9 1015.1 1014.6 0.0
01/06:30pm 8.5 4.6 1.2 60 3.1 WSW 11 13 6 7 1014.8 1014.3 0.0
01/06:00pm 9.2 5.3 1.4 58 3.4 WSW 11 13 6 7 1014.3 1013.8 0.0
01/05:30pm 10.1 5.3 0.4 51 4.1 WSW 15 24 8 13 1013.9 1013.4 0.0
01/05:00pm 11.7 6.2 0.5 46 4.8 WSW 19 24 10 13 1013.8 1013.3 0.0
01/04:30pm 12.5 6.8 0.6 44 5.2 WSW 20 26 11 14 1013.7 1013.2 0.0
01/04:00pm 13.1 7.4 -0.9 38 5.9 WSW 19 32 10 17 1013.5 1013.0 0.0
01/03:30pm 13.5 7.8 -0.9 37 6.1 SW 19 24 10 13 1013.4 1012.8 0.0
01/03:00pm 13.8 8.3 0.5 40 5.8 SW 19 28 10 15 1013.5 1013.0 0.0
01/02:30pm 13.3 6.6 -1.1 37 6.1 SW 24 32 13 17 1013.5 1013.0 0.0
01/02:00pm 12.8 6.4 -1.9 36 6.1 SW 22 33 12 18 1013.4 1012.8 0.0
01/01:30pm 13.0 6.7 1.4 45 5.2 SW 24 33 13 18 1013.4 1012.8 0.0
01/01:00pm 12.4 5.8 -0.1 42 5.4 SW 24 35 13 19 1013.6 1013.1 0.0
01/12:30pm 12.5 7.0 2.1 49 4.7 SW 20 30 11 16 1014.0 1013.5 0.0
01/12:00pm 11.8 5.1 1.2 48 4.6 WSW 26 33 14 18 1014.4 1013.9 0.0
01/11:30am 11.3 6.3 3.6 59 3.5 WSW 19 28 10 15 1014.8 1014.3 0.0
01/11:00am 10.3 5.1 3.3 62 3.2 WSW 20 30 11 16 1014.9 1014.4 0.0
01/10:30am 8.9 2.6 1.6 60 3.1 SW 24 33 13 18 1014.9 1014.4 0.0
01/10:00am 8.0 1.7 1.8 65 2.7 SW 24 32 13 17 1015.1 1014.6 0.0
01/09:30am 7.0 0.0 2.1 71 2.1 SW 28 37 15 20 1015.0 1015.3 0.0
01/09:00am 6.2 -0.4 2.1 75 1.7 SW 26 39 14 21 1015.0 1015.3 0.0
01/08:30am 5.5 -1.6 1.6 76 1.6 SW 28 37 15 20 1015.0 1015.3 0.0
01/08:00am 5.0 -2.0 1.7 79 1.4 SW 28 39 15 21 1014.9 1015.2 0.0
01/07:30am 4.5 -2.6 1.5 81 1.2 WSW 28 37 15 20 1014.6 1015.0 0.0
01/07:00am 3.9 -3.2 1.4 84 1.0 WSW 28 33 15 18 1014.4 1014.8 0.0
01/06:30am 3.4 -3.2 1.8 89 0.7 WSW 26 32 14 17 1014.2 1014.6 0.0
01/06:00am 3.5 -3.1 1.9 89 0.7 WSW 26 32 14 17 1014.0 1014.4 0.0
01/05:30am 3.6 -2.6 2.1 90 0.6 WSW 24 35 13 19 1013.9 1014.3 0.0
01/05:00am 3.5 -2.0 2.0 90 0.6 WSW 20 28 11 15 1013.9 1014.3 0.0
01/04:30am 3.6 -2.6 2.1 90 0.6 WSW 24 32 13 17 1013.8 1014.2 0.0
01/04:00am 3.9 -2.3 2.3 89 0.7 WSW 24 32 13 17 1013.9 1014.3 0.0
01/03:30am 4.1 -1.3 2.5 89 0.7 WSW 20 28 11 15 1014.0 1014.4 0.0
01/03:00am 4.3 -1.1 2.5 88 0.8 WSW 20 26 11 14 1014.0 1014.4 0.0
01/02:30am 4.0 -0.5 2.2 88 0.7 WSW 15 20 8 11 1014.2 1014.6 0.0
01/02:00am 4.0 0.3 2.2 88 0.7 WSW 11 15 6 8 1014.6 1015.0 0.0
01/01:30am 4.1 1.3 1.8 85 0.9 WSW 6 11 3 6 1015.2 1015.6 0.0
01/01:00am 4.2 0.8 1.7 84 1.0 WSW 9 13 5 7 1015.3 1015.7 0.0
01/12:30am 4.4 1.0 1.6 82 1.2 WSW 9 13 5 7 1015.6 1016.0 0.0
01/12:00am 4.4 0.9 1.4 81 1.2 WSW 9 13 5 7 1015.7 1016.1 0.0
 
Date/Time
EST
Temp
°C
App
Temp
°C
Dew
Point
Rel
Hum
%
Delta-T
°C
Wind Press
QNH
hPa
Press
MSL
hPa
Rain
since 9 am
mm
Dir
 
Spd
km/h
Gust
km/h
Spd
kts
Gust
kts
31/11:30pm 4.8 1.4 1.6 80 1.3 W 9 13 5 7 1015.7 1016.1 0.0
31/11:00pm 5.0 1.7 2.2 82 1.2 W 9 13 5 7 1015.8 1016.2 0.0
31/10:30pm 5.2 1.4 2.0 80 1.3 WSW 11 13 6 7 1015.9 1016.3 0.0
31/10:00pm 5.6 2.2 2.1 78 1.5 WSW 9 13 5 7 1016.0 1016.4 0.0
31/09:30pm 6.4 3.0 2.1 74 1.8 WSW 9 13 5 7 1016.0 1016.4 0.0
31/09:00pm 6.4 2.6 1.9 73 1.9 WSW 11 13 6 7 1016.0 1016.4 0.0
31/08:30pm 6.9 3.2 2.2 72 2.0 WSW 11 13 6 7 1015.9 1016.3 0.0
31/08:00pm 7.4 3.6 1.9 68 2.3 SW 11 13 6 7 1015.7 1016.1 0.0
31/07:30pm 8.0 3.9 2.3 67 2.5 WSW 13 17 7 9 1015.5 1015.9 0.0
31/07:00pm 8.8 4.7 2.2 63 2.9 WSW 13 19 7 10 1015.2 1015.6 0.0
31/06:30pm 9.2 5.1 2.1 61 3.1 WSW 13 19 7 10 1014.9 1015.2 0.0
31/06:00pm 9.2 5.0 1.4 58 3.4 WSW 13 19 7 10 1014.6 1015.0 0.0
31/05:30pm 10.1 5.0 1.0 53 3.9 WSW 17 22 9 12 1014.4 1014.8 0.0
31/05:00pm 11.2 6.2 1.2 50 4.4 WSW 17 26 9 14 1014.3 1014.7 0.0
31/04:30pm 12.5 7.0 1.8 48 4.8 SW 20 32 11 17 1014.0 1014.4 0.0
31/04:00pm 11.9 6.9 1.5 49 4.6 SW 17 24 9 13 1014.0 1014.4 0.0
31/03:30pm 11.7 6.7 1.6 50 4.5 SSW 17 26 9 14 1014.1 1014.5 0.0
31/03:00pm 11.8 7.5 1.2 48 4.6 SSW 13 17 7 9 1014.2 1014.6 0.0
31/02:30pm 12.3 6.9 1.3 47 4.9 SSW 19 28 10 15 1014.3 1014.7 0.0
31/02:00pm 12.5 6.4 2.9 52 4.4 WSW 24 33 13 18 1014.6 1015.0 0.0
31/01:30pm 12.2 6.6 0.9 46 4.9 SW 20 32 11 17 1014.9 1015.2 0.0
31/01:00pm 11.6 5.4 -0.2 44 5.0 SW 22 32 12 17 1015.2 1015.6 0.0
31/12:30pm 11.5 5.9 0.9 48 4.6 SW 20 30 11 16 1015.5 1015.9 0.0
31/12:00pm 11.3 5.1 -0.5 44 5.0 SW 22 32 12 17 1015.7 1016.1 0.0
31/11:30am 10.9 5.3 0.9 50 4.3 SW 20 30 11 16 1016.1 1016.5 0.0
31/11:00am 10.1 3.7 1.2 54 3.8 SW 24 33 13 18 1016.5 1016.9 0.0
31/10:30am 9.5 3.1 1.2 56 3.6 SW 24 33 13 18 1016.6 1017.0 0.0
31/10:00am 9.3 3.6 3.1 65 2.8 SW 22 32 12 17 1016.8 1017.2 0.0
31/09:30am 8.8 4.4 2.8 66 2.7 SW 15 24 8 13 1016.9 1017.3 0.0
31/09:00am 7.8 3.1 3.3 73 2.0 SW 17 22 9 12 1017.1 1017.5 0.2
31/08:30am 6.2 1.1 3.0 80 1.4 SW 19 24 10 13 1017.0 1017.4 0.2
31/08:00am 4.9 0.0 2.3 83 1.1 WSW 17 24 9 13 1017.0 1017.4 0.2
31/07:30am 3.8 -0.3 2.0 88 0.7 SW 13 17 7 9 1017.0 1017.4 0.2
31/07:00am 2.7 -1.5 1.8 94 0.4 WSW 13 19 7 10 1016.9 1017.3 0.2
31/06:30am 2.4 -1.4 1.7 95 0.3 SW 11 15 6 8 1016.9 1017.3 0.2
31/06:00am 2.3 -2.0 1.3 93 0.4 SW 13 17 7 9 1016.8 1017.2 0.2
31/05:30am 2.9 -0.9 1.9 93 0.4 SW 11 13 6 7 1016.6 1017.0 0.0
31/05:00am 3.0 -0.8 1.8 92 0.5 SSW 11 13 6 7 1016.5 1016.9 0.0
31/04:30am 3.2 -0.5 2.3 94 0.4 SW 11 13 6 7 1016.5 1016.9 0.0
31/04:00am 3.5 0.6 2.6 94 0.4 SW 7 11 4 6 1016.6 1017.0 0.0
31/03:30am 4.0 0.5 3.3 95 0.3 SW 11 13 6 7 1016.8 1017.2 0.0
31/03:00am 4.3 0.8 3.6 95 0.3 WSW 11 13 6 7 1016.9 1017.3 0.0
31/02:30am 4.7 1.3 3.8 94 0.4 WSW 11 13 6 7 1017.3 1017.7 0.0
31/02:00am 4.9 1.5 4.0 94 0.4 SW 11 13 6 7 1017.9 1018.3 0.0
31/01:30am 5.3 2.4 4.6 95 0.3 WSW 9 13 5 7 1018.2 1018.6 0.0
31/01:00am 5.5 2.6 4.9 96 0.3 WSW 9 11 5 6 1018.4 1018.8 0.0
31/12:30am 5.7 2.9 5.1 96 0.3 SW 9 13 5 7 1018.6 1019.0 0.0
31/12:00am 5.9 2.4 5.3 96 0.3 SW 13 17 7 9 1018.5 1018.9 0.0
 
Date/Time
EST
Temp
°C
App
Temp
°C
Dew
Point
Rel
Hum
%
Delta-T
°C
Wind Press
QNH
hPa
Press
MSL
hPa
Rain
since 9 am
mm
Dir
 
Spd
km/h
Gust
km/h
Spd
kts
Gust
kts
30/11:30pm 5.6 2.4 5.0 96 0.3 WSW 11 13 6 7 1018.7 1019.1 0.0
30/11:00pm 6.1 3.4 5.4 95 0.3 W 9 11 5 6 1018.7 1019.1 0.0
30/10:30pm 6.5 5.5 5.5 93 0.5 CALM 0 4 0 2 1019.0 1019.5 0.0
30/10:00pm 6.5 3.8 5.5 93 0.5 SSW 9 11 5 6 1019.1 1019.6 0.0
30/09:30pm 6.8 4.1 5.7 93 0.5 WSW 9 13 5 7 1019.2 1019.7 0.0
30/09:00pm 6.9 3.8 5.5 91 0.6 S 11 15 6 8 1019.3 1019.8 0.0
30/08:30pm 7.0 3.1 5.2 88 0.8 S 15 19 8 10 1019.2 1019.7 0.0
30/08:00pm 7.4 3.8 5.2 86 1.0 SSE 13 15 7 8 1019.0 1019.5 0.0
30/07:30pm 7.6 4.1 5.4 86 1.0 SSE 13 17 7 9 1018.8 1019.3 0.0
30/07:00pm 7.8 4.6 5.3 84 1.2 SSE 11 13 6 7 1018.7 1019.1 0.0
30/06:30pm 8.1 4.5 5.0 81 1.4 SSE 13 15 7 8 1018.4 1018.8 0.0
30/06:00pm 8.7 4.6 4.5 75 1.9 S 15 22 8 12 1018.1 1018.5 0.0
30/05:30pm 9.3 6.2 3.5 67 2.6 S 9 11 5 6 1017.9 1018.3 0.0
30/05:00pm 10.2 7.5 3.9 65 2.9 SW 7 13 4 7 1017.5 1018.0 0.0
30/04:30pm 10.4 6.8 3.2 61 3.3 SW 11 17 6 9 1017.4 1017.8 0.0
30/04:00pm 10.8 7.0 3.8 62 3.2 SW 13 17 7 9 1017.5 1018.0 0.0
30/03:30pm 11.0 8.4 4.0 62 3.2 SW 7 15 4 8 1017.6 1018.1 0.0
30/03:00pm 10.8 7.0 3.8 62 3.2 SSW 13 17 7 9 1017.9 1018.3 0.0
30/02:30pm 10.7 6.1 3.5 61 3.3 SSW 17 24 9 13 1018.0 1018.4 0.0
30/02:00pm 11.4 6.4 3.4 58 3.7 SW 19 28 10 15 1017.9 1018.3 0.0
30/01:30pm 11.8 7.6 3.6 57 3.8 SW 15 22 8 12 1018.1 1018.5 0.0
30/01:00pm 10.5 5.4 2.8 59 3.5 S 19 24 10 13 1018.4 1018.8 0.0

Other Formats:

Comma delimited format used in spreadsheet applications
http://www.bom.gov.au/fwo/IDN60801/IDN60801.94746.axf

JavaScript Object Notation format (JSON) in row-major order
http://www.bom.gov.au/fwo/IDN60801/IDN60801.94746.json